createdAt,value
2023-12-23T00:01:06.216Z,98471.75
2023-12-23T00:04:08.890Z,98470.25
2023-12-23T00:07:15.490Z,98473.44
2023-12-23T00:10:18.244Z,98492.50
2023-12-23T00:13:21.190Z,98491.56
2023-12-23T00:16:25.361Z,98492.31
2023-12-23T00:19:27.811Z,98485.31
2023-12-23T00:22:30.608Z,98490.03
2023-12-23T00:25:33.132Z,98460.25
2023-12-23T00:28:35.885Z,98453.44
2023-12-23T00:31:39.914Z,98462.22
2023-12-23T00:34:42.625Z,98465.19
2023-12-23T00:37:45.055Z,98452.34
2023-12-23T00:40:47.856Z,98447.63
2023-12-23T00:43:51.265Z,98427.00
2023-12-23T00:46:54.072Z,98423.16
2023-12-23T00:49:56.733Z,98413.81
2023-12-23T00:53:01.843Z,98425.16
2023-12-23T00:56:04.496Z,98438.44
2023-12-23T00:59:07.244Z,98442.44
2023-12-23T01:02:09.987Z,98451.03
2023-12-23T01:05:12.751Z,98444.22
2023-12-23T01:08:15.112Z,98441.69
2023-12-23T01:11:17.784Z,98456.03
2023-12-23T01:14:20.255Z,98484.87
2023-12-23T01:17:22.997Z,98508.09
2023-12-23T01:20:25.491Z,98518.28
2023-12-23T01:23:28.061Z,98496.66
2023-12-23T01:26:30.286Z,98506.16
2023-12-23T01:29:32.894Z,98501.53
2023-12-23T01:32:35.583Z,98517.94
2023-12-23T01:35:40.464Z,98518.22
2023-12-23T01:38:42.861Z,98514.28
2023-12-23T01:41:45.509Z,98510.13
2023-12-23T01:44:47.952Z,98510.88
2023-12-23T01:47:53.656Z,98520.97
2023-12-23T01:50:58.050Z,98521.31
2023-12-23T01:54:05.660Z,98494.44
2023-12-23T01:57:08.102Z,98489.72
2023-12-23T02:00:11.549Z,98482.72
2023-12-23T02:03:14.939Z,98479.91
2023-12-23T02:06:17.686Z,98493.13
2023-12-23T02:09:20.091Z,98509.03
2023-12-23T02:12:30.739Z,98531.78
2023-12-23T02:15:38.179Z,98548.66
2023-12-23T02:18:41.805Z,98546.50
2023-12-23T02:21:44.841Z,98560.00
2023-12-23T02:24:47.971Z,98575.16
2023-12-23T02:28:05.477Z,98567.53
2023-12-23T02:31:09.056Z,98567.19
2023-12-23T02:34:13.419Z,98562.69
2023-12-23T02:37:16.030Z,98574.41
2023-12-23T02:40:19.569Z,98566.06
2023-12-23T02:43:21.912Z,98563.53
2023-12-23T02:46:24.828Z,98565.34
2023-12-23T02:49:27.061Z,98543.97
2023-12-23T02:52:31.476Z,98561.16
2023-12-23T02:55:34.957Z,98574.22
2023-12-23T02:58:37.585Z,98573.81
2023-12-23T03:01:39.958Z,98581.09
2023-12-23T03:04:42.720Z,98581.25
2023-12-23T03:07:45.429Z,98602.19
2023-12-23T03:10:48.179Z,98589.78
2023-12-23T03:13:51.332Z,98596.56
2023-12-23T03:16:54.717Z,98614.75
2023-12-23T03:19:57.504Z,98609.41
2023-12-23T03:23:01.072Z,98599.25
2023-12-23T03:26:03.580Z,98595.41
2023-12-23T03:29:09.567Z,98620.09
2023-12-23T03:32:12.098Z,98654.56
2023-12-23T03:35:14.856Z,98677.44
2023-12-23T03:38:17.212Z,98688.19
2023-12-23T03:41:20.213Z,98676.16
2023-12-23T03:44:22.915Z,98702.22
2023-12-23T03:47:25.506Z,98679.19
2023-12-23T03:50:30.873Z,98675.03
2023-12-23T03:53:33.915Z,98650.25
2023-12-23T03:56:36.581Z,98632.84
2023-12-23T03:59:40.652Z,98624.06
2023-12-23T04:02:43.040Z,98636.59
2023-12-23T04:05:45.721Z,98636.50
2023-12-23T04:08:48.377Z,98632.06
2023-12-23T04:11:51.481Z,98636.06
2023-12-23T04:14:54.106Z,98629.56
2023-12-23T04:17:57.375Z,98610.19
2023-12-23T04:20:59.861Z,98597.25
2023-12-23T04:24:02.555Z,98605.41
2023-12-23T04:27:05.481Z,98607.78
2023-12-23T04:30:09.068Z,98598.97
2023-12-23T04:33:11.754Z,98600.72
2023-12-23T04:36:14.612Z,98587.56
2023-12-23T04:39:16.972Z,98592.72
2023-12-23T04:42:19.732Z,98606.25
2023-12-23T04:45:22.288Z,98615.47
2023-12-23T04:48:26.656Z,98617.00
2023-12-23T04:51:29.019Z,98620.75
2023-12-23T04:54:33.413Z,98621.56
2023-12-23T04:57:35.829Z,98638.84
2023-12-23T05:00:38.511Z,98647.16
2023-12-23T05:03:42.100Z,98656.75
2023-12-23T05:06:45.256Z,98663.56
2023-12-23T05:09:50.728Z,98661.47
2023-12-23T05:12:53.639Z,98662.41
2023-12-23T05:15:56.952Z,98678.03
2023-12-23T05:18:59.871Z,98700.72
2023-12-23T05:22:02.162Z,98702.72
2023-12-23T05:25:05.571Z,98711.47
2023-12-23T05:28:07.919Z,98722.75
2023-12-23T05:31:10.591Z,98751.19
2023-12-23T05:34:12.902Z,98756.25
2023-12-23T05:37:15.983Z,98777.38
2023-12-23T05:40:18.374Z,98779.97
2023-12-23T05:43:21.067Z,98783.53
2023-12-23T05:46:23.334Z,98777.97
2023-12-23T05:49:25.941Z,98804.59
2023-12-23T05:52:28.583Z,98808.75
2023-12-23T05:55:31.303Z,98803.00
2023-12-23T05:58:34.214Z,98825.28
2023-12-23T06:01:36.782Z,98829.84
2023-12-23T06:04:39.373Z,98838.53
2023-12-23T06:07:41.767Z,98829.13
2023-12-23T06:10:50.943Z,98847.63
2023-12-23T06:14:00.326Z,98864.91
2023-12-23T06:17:03.026Z,98867.25
2023-12-23T06:20:05.913Z,98863.59
2023-12-23T06:23:08.694Z,98873.00
2023-12-23T06:26:12.573Z,98875.94
2023-12-23T06:29:15.634Z,98858.66
2023-12-23T06:32:18.053Z,98859.31
2023-12-23T06:35:21.673Z,98852.06
2023-12-23T06:38:24.330Z,98837.22
2023-12-23T06:41:27.188Z,98855.31
2023-12-23T06:44:29.537Z,98867.97
2023-12-23T06:47:32.382Z,98874.69
2023-12-23T06:50:34.748Z,98909.50
2023-12-23T06:53:37.458Z,98895.34
2023-12-23T06:56:39.812Z,98883.97
2023-12-23T06:59:46.988Z,98909.13
2023-12-23T07:02:50.542Z,98906.16
2023-12-23T07:05:53.612Z,98910.91
2023-12-23T07:08:56.094Z,98913.78
2023-12-23T07:11:58.725Z,98904.72
2023-12-23T07:15:01.013Z,98898.38
2023-12-23T07:18:03.664Z,98910.72
2023-12-23T07:21:05.937Z,98929.28
2023-12-23T07:24:08.681Z,98946.06
2023-12-23T07:27:11.011Z,98963.59
2023-12-23T07:30:15.614Z,98976.38
2023-12-23T07:33:18.288Z,98981.72
2023-12-23T07:36:21.004Z,98986.41
2023-12-23T07:39:23.309Z,99007.22
2023-12-23T07:42:26.222Z,98987.25
2023-12-23T07:45:28.428Z,98999.19
2023-12-23T07:48:30.973Z,98999.94
2023-12-23T07:51:33.208Z,98998.69
2023-12-23T07:54:36.392Z,99022.16
2023-12-23T07:57:38.763Z,99026.00
2023-12-23T08:00:41.637Z,99046.63
2023-12-23T08:03:44.486Z,99043.38
2023-12-23T08:06:47.059Z,99046.66
2023-12-23T08:09:50.024Z,99061.13
2023-12-23T08:12:52.549Z,99071.47
2023-12-23T08:15:55.648Z,99089.22
2023-12-23T08:18:57.981Z,99102.25
2023-12-23T08:22:00.848Z,99100.59
2023-12-23T08:25:03.250Z,99100.00
2023-12-23T08:28:08.096Z,99118.50
2023-12-23T08:31:10.525Z,99112.88
2023-12-23T08:34:13.420Z,99115.41
2023-12-23T08:37:15.806Z,99129.28
2023-12-23T08:40:18.433Z,99129.28
2023-12-23T08:43:20.788Z,99136.94
2023-12-23T08:46:23.323Z,99146.63
2023-12-23T08:49:26.062Z,99139.09
2023-12-23T08:52:29.009Z,99139.34
2023-12-23T08:55:31.379Z,99149.38
2023-12-23T08:58:34.037Z,99157.56
2023-12-23T09:01:36.800Z,99161.69
2023-12-23T09:04:39.719Z,99168.16
2023-12-23T09:07:42.041Z,99158.19
2023-12-23T09:10:44.808Z,99147.91
2023-12-23T09:13:47.152Z,99155.75
2023-12-23T09:16:49.809Z,99167.06
2023-12-23T09:19:52.269Z,99165.59
2023-12-23T09:22:54.892Z,99171.97
2023-12-23T09:25:57.288Z,99176.22
2023-12-23T09:28:59.894Z,99171.94
2023-12-23T09:32:02.183Z,99180.81
2023-12-23T09:35:06.356Z,99184.00
2023-12-23T09:38:10.215Z,99183.25
2023-12-23T09:41:13.017Z,99173.62
2023-12-23T09:44:15.529Z,99157.22
2023-12-23T09:47:18.804Z,99157.75
2023-12-23T09:50:21.235Z,99154.81
2023-12-23T09:53:27.763Z,99155.47
2023-12-23T09:56:30.970Z,99163.84
2023-12-23T09:59:33.749Z,99176.00
2023-12-23T10:02:36.091Z,99192.75
2023-12-23T10:05:45.050Z,99185.72
2023-12-23T10:08:47.431Z,99185.16
2023-12-23T10:11:50.039Z,99171.50
2023-12-23T10:14:53.890Z,99188.09
2023-12-23T10:17:57.273Z,99193.31
2023-12-23T10:20:59.683Z,99189.12
2023-12-23T10:24:03.159Z,99184.47
2023-12-23T10:27:05.684Z,99178.66
2023-12-23T10:30:13.195Z,99187.38
2023-12-23T10:33:18.252Z,99173.97
2023-12-23T10:36:21.031Z,99174.72
2023-12-23T10:39:29.132Z,99177.34
2023-12-23T10:42:33.419Z,99166.12
2023-12-23T10:45:37.421Z,99180.94
2023-12-23T10:48:41.453Z,99197.94
2023-12-23T10:51:45.225Z,99184.63
2023-12-23T10:54:48.909Z,99178.84
2023-12-23T10:57:52.839Z,99180.84
2023-12-23T11:00:57.074Z,99169.31
2023-12-23T11:04:02.471Z,99165.78
2023-12-23T11:07:06.231Z,99165.44
2023-12-23T11:10:09.732Z,99160.47
2023-12-23T11:13:13.981Z,99150.31
2023-12-23T11:16:18.473Z,99146.03
2023-12-23T11:19:21.382Z,99146.84
2023-12-23T11:22:25.279Z,99148.50
2023-12-23T11:25:43.581Z,99145.25
2023-12-23T11:28:50.093Z,99136.84
2023-12-23T11:32:09.773Z,99140.69
2023-12-23T11:35:13.630Z,99140.06
2023-12-23T11:38:17.138Z,99123.50
2023-12-23T11:41:20.483Z,99101.25
2023-12-23T11:44:24.340Z,99088.91
2023-12-23T11:47:28.153Z,99092.31
2023-12-23T11:50:30.930Z,99079.75
2023-12-23T11:53:33.577Z,99081.19
2023-12-23T11:56:36.628Z,99080.78
2023-12-23T11:59:39.070Z,99081.69
2023-12-23T12:02:41.743Z,99073.97
2023-12-23T12:05:44.624Z,99066.62
2023-12-23T12:08:47.011Z,99062.03
2023-12-23T12:11:50.162Z,99061.50
2023-12-23T12:14:52.463Z,99051.41
2023-12-23T12:17:55.597Z,99050.31
2023-12-23T12:20:59.143Z,99028.94
2023-12-23T12:24:02.990Z,99019.00
2023-12-23T12:27:05.870Z,99012.56
2023-12-23T12:30:12.969Z,99009.03
2023-12-23T12:33:16.764Z,99002.22
2023-12-23T12:36:21.648Z,99005.56
2023-12-23T12:39:24.506Z,99016.16
2023-12-23T12:42:27.109Z,99017.75
2023-12-23T12:45:29.462Z,99023.47
2023-12-23T12:48:32.577Z,99023.94
2023-12-23T12:51:36.712Z,99038.16
2023-12-23T12:54:39.650Z,99053.25
2023-12-23T12:57:42.404Z,99055.41
2023-12-23T13:00:45.030Z,99057.44
2023-12-23T13:03:50.499Z,99062.03
2023-12-23T13:06:53.195Z,99065.34
2023-12-23T13:09:55.737Z,99063.41
2023-12-23T13:12:58.441Z,99058.56
2023-12-23T13:16:00.811Z,99054.34
2023-12-23T13:19:03.924Z,99055.50
2023-12-23T13:22:06.618Z,99051.84
2023-12-23T13:25:12.052Z,99058.31
2023-12-23T13:28:14.443Z,99055.28
2023-12-23T13:31:17.631Z,99057.94
2023-12-23T13:34:19.961Z,99058.63
2023-12-23T13:37:22.647Z,99056.03
2023-12-23T13:40:25.438Z,99060.12
2023-12-23T13:43:28.035Z,99051.78
2023-12-23T13:46:30.390Z,99051.34
2023-12-23T13:49:33.333Z,99053.09
2023-12-23T13:52:35.924Z,99045.94
2023-12-23T13:55:38.731Z,99043.63
2023-12-23T13:58:40.918Z,99044.66
2023-12-23T14:01:43.515Z,99040.31
2023-12-23T14:04:47.130Z,99035.44
2023-12-23T14:07:49.727Z,99027.91
2023-12-23T14:10:52.463Z,99024.84
2023-12-23T14:13:55.102Z,99033.06
2023-12-23T14:16:57.742Z,99035.50
2023-12-23T14:20:00.071Z,99031.72
2023-12-23T14:23:04.773Z,99026.31
2023-12-23T14:26:07.225Z,99027.00
2023-12-23T14:29:09.953Z,99031.19
2023-12-23T14:32:12.331Z,99039.69
2023-12-23T14:35:15.009Z,99034.97
2023-12-23T14:38:17.367Z,99035.91
2023-12-23T14:41:20.310Z,99037.66
2023-12-23T14:44:22.737Z,99042.66
2023-12-23T14:47:25.565Z,99037.19
2023-12-23T14:50:28.393Z,99038.84
2023-12-23T14:53:31.135Z,99046.09
2023-12-23T14:56:33.559Z,99039.00
2023-12-23T14:59:36.249Z,99052.69
2023-12-23T15:02:39.266Z,99049.97
2023-12-23T15:05:41.943Z,99055.97
2023-12-23T15:08:44.240Z,99057.31
2023-12-23T15:11:47.248Z,99049.25
2023-12-23T15:14:51.674Z,99049.25
2023-12-23T15:17:54.336Z,99046.91
2023-12-23T15:20:56.671Z,99057.03
2023-12-23T15:23:59.874Z,99053.53
2023-12-23T15:27:02.226Z,99061.13
2023-12-23T15:30:06.719Z,99058.53
2023-12-23T15:33:09.132Z,99063.50
2023-12-23T15:36:12.657Z,99056.44
2023-12-23T15:39:15.236Z,99056.34
2023-12-23T15:42:17.784Z,99063.06
2023-12-23T15:45:20.338Z,99054.63
2023-12-23T15:48:23.114Z,99057.06
2023-12-23T15:51:25.443Z,99053.75
2023-12-23T15:54:28.296Z,99045.41
2023-12-23T15:57:30.808Z,99055.59
2023-12-23T16:00:33.467Z,99059.16
2023-12-23T16:03:36.161Z,99047.06
2023-12-23T16:06:38.610Z,99051.47
2023-12-23T16:09:41.371Z,99044.81
2023-12-23T16:12:43.796Z,99045.78
2023-12-23T16:15:46.504Z,99046.63
2023-12-23T16:18:48.870Z,99038.53
2023-12-23T16:21:52.913Z,99041.59
2023-12-23T16:24:55.444Z,99036.78
2023-12-23T16:27:58.399Z,99022.66
2023-12-23T16:31:00.705Z,99020.75
2023-12-23T16:34:03.290Z,99024.47
2023-12-23T16:37:05.694Z,99012.53
2023-12-23T16:40:09.695Z,99006.78
2023-12-23T16:43:11.907Z,99002.22
2023-12-23T16:46:14.596Z,99008.69
2023-12-23T16:49:17.079Z,99014.00
2023-12-23T16:52:19.670Z,99005.34
2023-12-23T16:55:22.070Z,99009.87
2023-12-23T16:58:24.634Z,99000.53
2023-12-23T17:01:27.329Z,99001.87
2023-12-23T17:04:29.998Z,98996.81
2023-12-23T17:07:34.335Z,98992.47
2023-12-23T17:10:36.933Z,98996.88
2023-12-23T17:13:39.230Z,98991.84
2023-12-23T17:16:41.816Z,98994.53
2023-12-23T17:19:44.021Z,98998.03
2023-12-23T17:22:46.607Z,98992.78
2023-12-23T17:25:48.816Z,98997.88
2023-12-23T17:28:51.345Z,98998.56
2023-12-23T17:31:53.778Z,98996.66
2023-12-23T17:34:56.357Z,99007.00
2023-12-23T17:38:00.582Z,99011.50
2023-12-23T17:41:03.620Z,99020.84
2023-12-23T17:44:06.116Z,99037.78
2023-12-23T17:47:08.675Z,99041.28
2023-12-23T17:50:13.394Z,99064.03
2023-12-23T17:53:16.869Z,99088.38
2023-12-23T17:56:22.225Z,99092.94
2023-12-23T17:59:26.049Z,99095.75
2023-12-23T18:02:31.740Z,99074.53
2023-12-23T18:05:34.462Z,99073.59
2023-12-23T18:08:39.578Z,99068.59
2023-12-23T18:11:42.416Z,99072.09
2023-12-23T18:14:44.771Z,99077.16
2023-12-23T18:17:47.436Z,99074.44
2023-12-23T18:20:49.863Z,99077.25
2023-12-23T18:23:52.794Z,99079.91
2023-12-23T18:26:55.070Z,99074.97
2023-12-23T18:29:57.829Z,99074.97
2023-12-23T18:33:00.558Z,99068.44
2023-12-23T18:36:03.454Z,99070.72
2023-12-23T18:39:05.846Z,99081.97
2023-12-23T18:42:08.424Z,99085.69
2023-12-23T18:45:11.455Z,99088.53
2023-12-23T18:48:16.143Z,99088.38
2023-12-23T18:51:18.567Z,99090.28
2023-12-23T18:54:21.139Z,99100.56
2023-12-23T18:57:23.380Z,99105.72
2023-12-23T19:00:25.933Z,99111.34
2023-12-23T19:03:28.351Z,99121.75
2023-12-23T19:06:31.252Z,99112.31
2023-12-23T19:09:33.722Z,99108.75
2023-12-23T19:12:36.242Z,99111.78
2023-12-23T19:15:38.944Z,99110.28
2023-12-23T19:18:41.606Z,99114.91
2023-12-23T19:21:44.504Z,99123.50
2023-12-23T19:24:47.071Z,99122.91
2023-12-23T19:27:49.333Z,99137.28
2023-12-23T19:30:57.975Z,99141.16
2023-12-23T19:34:00.701Z,99144.56
2023-12-23T19:37:03.574Z,99149.75
2023-12-23T19:40:10.204Z,99147.31
2023-12-23T19:43:14.013Z,99162.69
2023-12-23T19:46:16.456Z,99160.19
2023-12-23T19:49:19.070Z,99168.38
2023-12-23T19:52:21.478Z,99171.22
2023-12-23T19:55:24.042Z,99172.53
2023-12-23T19:58:26.354Z,99181.25
2023-12-23T20:01:28.871Z,99179.50
2023-12-23T20:04:31.933Z,99169.63
2023-12-23T20:07:34.260Z,99174.19
2023-12-23T20:10:37.456Z,99177.31
2023-12-23T20:13:39.845Z,99184.31
2023-12-23T20:16:42.432Z,99181.50
2023-12-23T20:19:44.714Z,99188.25
2023-12-23T20:22:47.242Z,99191.47
2023-12-23T20:25:49.458Z,99190.53
2023-12-23T20:28:52.194Z,99201.22
2023-12-23T20:31:54.495Z,99207.22
2023-12-23T20:34:57.239Z,99212.47
2023-12-23T20:37:59.503Z,99208.69
2023-12-23T20:41:02.217Z,99211.66
2023-12-23T20:44:04.584Z,99219.38
2023-12-23T20:47:07.228Z,99227.78
2023-12-23T20:50:09.954Z,99232.03
2023-12-23T20:53:12.670Z,99233.16
2023-12-23T20:56:27.623Z,99235.00
2023-12-23T20:59:30.399Z,99243.16
2023-12-23T21:02:32.884Z,99248.03
2023-12-23T21:05:35.804Z,99252.91
2023-12-23T21:08:38.256Z,99252.16
2023-12-23T21:11:41.257Z,99259.09
2023-12-23T21:14:43.700Z,99267.47
2023-12-23T21:17:46.652Z,99279.66
2023-12-23T21:20:49.004Z,99286.81
2023-12-23T21:23:51.658Z,99292.13
2023-12-23T21:26:53.898Z,99297.00
2023-12-23T21:29:56.585Z,99293.75
2023-12-23T21:32:59.504Z,99311.16
2023-12-23T21:36:02.195Z,99301.84
2023-12-23T21:39:04.660Z,99317.81
2023-12-23T21:42:07.284Z,99313.38
2023-12-23T21:45:09.978Z,99323.44
2023-12-23T21:48:12.592Z,99328.59
2023-12-23T21:51:15.188Z,99326.47
2023-12-23T21:54:17.742Z,99331.19
2023-12-23T21:57:20.813Z,99335.25
2023-12-23T22:00:23.772Z,99337.50
2023-12-23T22:03:27.304Z,99333.88
2023-12-23T22:06:29.687Z,99343.56
2023-12-23T22:09:32.251Z,99344.19
2023-12-23T22:12:34.654Z,99356.34
2023-12-23T22:15:37.324Z,99356.34
2023-12-23T22:18:39.679Z,99372.28
2023-12-23T22:21:42.388Z,99363.63
2023-12-23T22:24:45.185Z,99365.91
2023-12-23T22:27:47.798Z,99373.16
2023-12-23T22:30:50.909Z,99361.94
2023-12-23T22:33:53.664Z,99363.63
2023-12-23T22:36:57.031Z,99366.97
2023-12-23T22:40:01.092Z,99368.56
2023-12-23T22:43:03.567Z,99372.78
2023-12-23T22:46:06.209Z,99375.41
2023-12-23T22:49:08.588Z,99376.25
2023-12-23T22:52:11.511Z,99372.44
2023-12-23T22:55:13.839Z,99380.44
2023-12-23T22:58:16.482Z,99390.94
2023-12-23T23:01:18.883Z,99390.16
2023-12-23T23:04:21.755Z,99390.16
2023-12-23T23:07:24.252Z,99386.63
2023-12-23T23:10:26.899Z,99398.47
2023-12-23T23:13:29.170Z,99393.13
2023-12-23T23:16:31.669Z,99403.84
2023-12-23T23:19:35.057Z,99401.91
2023-12-23T23:22:40.624Z,99406.94
2023-12-23T23:25:42.950Z,99417.91
2023-12-23T23:28:45.480Z,99413.13
2023-12-23T23:31:47.753Z,99416.88
2023-12-23T23:34:58.460Z,99421.91
2023-12-23T23:38:07.241Z,99436.72
2023-12-23T23:41:11.317Z,99446.03
2023-12-23T23:44:13.721Z,99440.03
2023-12-23T23:47:16.253Z,99449.88
2023-12-23T23:50:18.917Z,99449.91
2023-12-23T23:53:22.494Z,99458.03
2023-12-23T23:56:25.118Z,99464.47
2023-12-23T23:59:27.785Z,99471.41
